sensor_id;sensor_type;location;lat;lon;timestamp;P1;durP1;ratioP1;P2;durP2;ratioP2
16524;SDS011;8375;33.594;-117.718;2023-02-28T00:01:19;7.03;;;1.53;;
16524;SDS011;8375;33.594;-117.718;2023-02-28T00:03:48;5.80;;;1.70;;
16524;SDS011;8375;33.594;-117.718;2023-02-28T00:06:18;7.73;;;1.80;;
16524;SDS011;8375;33.594;-117.718;2023-02-28T00:08:47;8.03;;;1.30;;
16524;SDS011;8375;33.594;-117.718;2023-02-28T00:11:16;4.93;;;2.03;;
16524;SDS011;8375;33.594;-117.718;2023-02-28T00:13:45;4.17;;;1.50;;
16524;SDS011;8375;33.594;-117.718;2023-02-28T00:16:15;1.47;;;1.30;;
16524;SDS011;8375;33.594;-117.718;2023-02-28T00:18:45;4.63;;;1.60;;
16524;SDS011;8375;33.594;-117.718;2023-02-28T00:21:17;3.53;;;1.83;;
16524;SDS011;8375;33.594;-117.718;2023-02-28T00:23:46;2.60;;;1.40;;
16524;SDS011;8375;33.594;-117.718;2023-02-28T00:26:15;4.93;;;1.67;;
16524;SDS011;8375;33.594;-117.718;2023-02-28T00:28:43;5.43;;;1.90;;
16524;SDS011;8375;33.594;-117.718;2023-02-28T00:31:12;3.97;;;1.40;;
16524;SDS011;8375;33.594;-117.718;2023-02-28T00:33:41;4.77;;;1.90;;
16524;SDS011;8375;33.594;-117.718;2023-02-28T00:36:10;8.07;;;2.10;;
16524;SDS011;8375;33.594;-117.718;2023-02-28T01:47:33;7.33;;;2.13;;
16524;SDS011;8375;33.594;-117.718;2023-02-28T01:50:07;2.53;;;1.00;;
16524;SDS011;8375;33.594;-117.718;2023-02-28T01:52:41;4.10;;;0.93;;
16524;SDS011;8375;33.594;-117.718;2023-02-28T01:55:10;2.77;;;1.20;;
16524;SDS011;8375;33.594;-117.718;2023-02-28T01:57:41;2.87;;;1.10;;
16524;SDS011;8375;33.594;-117.718;2023-02-28T02:00:14;4.23;;;1.40;;
16524;SDS011;8375;33.594;-117.718;2023-02-28T02:02:47;2.97;;;1.43;;
16524;SDS011;8375;33.594;-117.718;2023-02-28T02:05:19;4.60;;;1.60;;
16524;SDS011;8375;33.594;-117.718;2023-02-28T02:07:51;2.13;;;1.20;;
16524;SDS011;8375;33.594;-117.718;2023-02-28T02:10:24;2.00;;;1.30;;
16524;SDS011;8375;33.594;-117.718;2023-02-28T02:13:00;3.13;;;1.20;;
16524;SDS011;8375;33.594;-117.718;2023-02-28T02:15:40;3.20;;;1.40;;
16524;SDS011;8375;33.594;-117.718;2023-02-28T02:18:16;2.27;;;1.40;;
16524;SDS011;8375;33.594;-117.718;2023-02-28T02:21:03;5.77;;;1.50;;
16524;SDS011;8375;33.594;-117.718;2023-02-28T02:27:04;2.90;;;1.23;;
16524;SDS011;8375;33.594;-117.718;2023-02-28T02:33:21;1.53;;;0.83;;
16524;SDS011;8375;33.594;-117.718;2023-02-28T02:36:06;3.10;;;1.40;;
16524;SDS011;8375;33.594;-117.718;2023-02-28T02:38:43;4.80;;;1.33;;
16524;SDS011;8375;33.594;-117.718;2023-02-28T02:41:18;3.57;;;1.40;;
16524;SDS011;8375;33.594;-117.718;2023-02-28T02:43:53;3.17;;;1.40;;
16524;SDS011;8375;33.594;-117.718;2023-02-28T02:46:27;4.70;;;1.43;;
16524;SDS011;8375;33.594;-117.718;2023-02-28T02:49:00;2.97;;;1.10;;
16524;SDS011;8375;33.594;-117.718;2023-02-28T02:51:37;4.93;;;1.50;;
16524;SDS011;8375;33.594;-117.718;2023-02-28T02:54:08;2.27;;;1.77;;
16524;SDS011;8375;33.594;-117.718;2023-02-28T02:56:42;3.87;;;1.20;;
16524;SDS011;8375;33.594;-117.718;2023-02-28T02:59:15;2.63;;;1.00;;
16524;SDS011;8375;33.594;-117.718;2023-02-28T03:01:48;2.20;;;1.00;;
16524;SDS011;8375;33.594;-117.718;2023-02-28T03:04:19;3.03;;;1.27;;
16524;SDS011;8375;33.594;-117.718;2023-02-28T03:06:52;4.43;;;1.70;;
16524;SDS011;8375;33.594;-117.718;2023-02-28T03:09:21;4.47;;;1.60;;
16524;SDS011;8375;33.594;-117.718;2023-02-28T03:11:51;4.27;;;1.20;;
16524;SDS011;8375;33.594;-117.718;2023-02-28T03:14:27;2.97;;;1.17;;
16524;SDS011;8375;33.594;-117.718;2023-02-28T03:17:21;4.97;;;1.67;;
16524;SDS011;8375;33.594;-117.718;2023-02-28T03:20:01;5.97;;;1.20;;
16524;SDS011;8375;33.594;-117.718;2023-02-28T03:25:31;7.13;;;1.30;;
16524;SDS011;8375;33.594;-117.718;2023-02-28T03:28:09;4.47;;;1.30;;
16524;SDS011;8375;33.594;-117.718;2023-02-28T03:30:48;3.30;;;1.40;;
16524;SDS011;8375;33.594;-117.718;2023-02-28T03:33:20;2.70;;;1.20;;
16524;SDS011;8375;33.594;-117.718;2023-02-28T03:35:52;5.87;;;1.43;;
16524;SDS011;8375;33.594;-117.718;2023-02-28T03:38:28;3.40;;;1.30;;
16524;SDS011;8375;33.594;-117.718;2023-02-28T03:41:03;4.07;;;1.50;;
16524;SDS011;8375;33.594;-117.718;2023-02-28T03:43:38;2.20;;;1.30;;
16524;SDS011;8375;33.594;-117.718;2023-02-28T03:46:14;3.10;;;1.50;;
16524;SDS011;8375;33.594;-117.718;2023-02-28T03:48:48;3.43;;;1.40;;
16524;SDS011;8375;33.594;-117.718;2023-02-28T03:51:23;5.53;;;1.80;;
16524;SDS011;8375;33.594;-117.718;2023-02-28T03:53:57;7.07;;;1.80;;
16524;SDS011;8375;33.594;-117.718;2023-02-28T03:56:33;4.90;;;1.57;;
16524;SDS011;8375;33.594;-117.718;2023-02-28T03:59:07;6.00;;;1.67;;
16524;SDS011;8375;33.594;-117.718;2023-02-28T04:01:41;4.47;;;2.00;;
16524;SDS011;8375;33.594;-117.718;2023-02-28T04:04:12;4.57;;;1.93;;
16524;SDS011;8375;33.594;-117.718;2023-02-28T04:06:42;4.33;;;2.00;;
16524;SDS011;8375;33.594;-117.718;2023-02-28T04:09:14;2.90;;;1.73;;
16524;SDS011;8375;33.594;-117.718;2023-02-28T04:11:43;2.13;;;1.63;;
16524;SDS011;8375;33.594;-117.718;2023-02-28T04:14:13;4.83;;;1.90;;
16524;SDS011;8375;33.594;-117.718;2023-02-28T04:16:42;3.40;;;2.10;;
16524;SDS011;8375;33.594;-117.718;2023-02-28T04:19:11;2.63;;;1.73;;
16524;SDS011;8375;33.594;-117.718;2023-02-28T04:21:41;3.00;;;1.90;;
16524;SDS011;8375;33.594;-117.718;2023-02-28T04:24:13;4.13;;;2.47;;
16524;SDS011;8375;33.594;-117.718;2023-02-28T04:26:44;4.43;;;2.60;;
16524;SDS011;8375;33.594;-117.718;2023-02-28T04:29:17;2.70;;;2.13;;
16524;SDS011;8375;33.594;-117.718;2023-02-28T04:31:47;4.73;;;1.80;;
16524;SDS011;8375;33.594;-117.718;2023-02-28T04:34:18;4.33;;;1.40;;
16524;SDS011;8375;33.594;-117.718;2023-02-28T04:36:49;1.60;;;1.23;;
16524;SDS011;8375;33.594;-117.718;2023-02-28T04:39:21;5.30;;;1.40;;
16524;SDS011;8375;33.594;-117.718;2023-02-28T04:41:51;3.27;;;1.50;;
16524;SDS011;8375;33.594;-117.718;2023-02-28T04:44:20;7.43;;;2.20;;
16524;SDS011;8375;33.594;-117.718;2023-02-28T04:46:49;3.73;;;1.80;;
16524;SDS011;8375;33.594;-117.718;2023-02-28T04:49:18;2.83;;;1.40;;
16524;SDS011;8375;33.594;-117.718;2023-02-28T04:51:46;3.53;;;2.03;;
16524;SDS011;8375;33.594;-117.718;2023-02-28T04:54:15;3.30;;;1.60;;
16524;SDS011;8375;33.594;-117.718;2023-02-28T04:56:46;3.53;;;2.00;;
16524;SDS011;8375;33.594;-117.718;2023-02-28T04:59:16;4.23;;;2.27;;
16524;SDS011;8375;33.594;-117.718;2023-02-28T05:01:45;3.27;;;2.40;;
16524;SDS011;8375;33.594;-117.718;2023-02-28T05:04:15;10.23;;;2.90;;
16524;SDS011;8375;33.594;-117.718;2023-02-28T05:06:44;4.90;;;2.63;;
16524;SDS011;8375;33.594;-117.718;2023-02-28T05:09:13;6.47;;;2.83;;
16524;SDS011;8375;33.594;-117.718;2023-02-28T05:11:42;6.37;;;2.60;;
16524;SDS011;8375;33.594;-117.718;2023-02-28T05:14:13;5.00;;;2.47;;
16524;SDS011;8375;33.594;-117.718;2023-02-28T05:16:42;3.77;;;2.17;;
16524;SDS011;8375;33.594;-117.718;2023-02-28T05:19:10;4.50;;;2.20;;
16524;SDS011;8375;33.594;-117.718;2023-02-28T05:21:39;5.00;;;2.30;;
16524;SDS011;8375;33.594;-117.718;2023-02-28T05:24:16;4.53;;;2.33;;
16524;SDS011;8375;33.594;-117.718;2023-02-28T05:26:48;8.93;;;2.53;;
16524;SDS011;8375;33.594;-117.718;2023-02-28T05:29:20;7.10;;;1.97;;
16524;SDS011;8375;33.594;-117.718;2023-02-28T05:31:48;3.23;;;1.70;;
16524;SDS011;8375;33.594;-117.718;2023-02-28T05:34:17;2.77;;;1.67;;
16524;SDS011;8375;33.594;-117.718;2023-02-28T05:36:46;3.03;;;1.60;;
16524;SDS011;8375;33.594;-117.718;2023-02-28T05:39:14;3.60;;;1.50;;
16524;SDS011;8375;33.594;-117.718;2023-02-28T05:41:43;3.87;;;1.70;;
16524;SDS011;8375;33.594;-117.718;2023-02-28T05:44:12;4.63;;;1.90;;
16524;SDS011;8375;33.594;-117.718;2023-02-28T05:46:42;2.40;;;1.50;;
16524;SDS011;8375;33.594;-117.718;2023-02-28T05:49:10;2.37;;;1.50;;
16524;SDS011;8375;33.594;-117.718;2023-02-28T05:51:39;3.93;;;1.40;;
16524;SDS011;8375;33.594;-117.718;2023-02-28T05:54:08;3.27;;;1.50;;
16524;SDS011;8375;33.594;-117.718;2023-02-28T05:56:36;5.67;;;1.87;;
16524;SDS011;8375;33.594;-117.718;2023-02-28T05:59:06;2.23;;;1.40;;
16524;SDS011;8375;33.594;-117.718;2023-02-28T06:01:36;5.03;;;1.63;;
16524;SDS011;8375;33.594;-117.718;2023-02-28T06:04:08;3.00;;;1.63;;
16524;SDS011;8375;33.594;-117.718;2023-02-28T06:06:39;3.60;;;1.60;;
16524;SDS011;8375;33.594;-117.718;2023-02-28T06:09:08;2.60;;;1.60;;
16524;SDS011;8375;33.594;-117.718;2023-02-28T06:11:36;2.13;;;1.53;;
16524;SDS011;8375;33.594;-117.718;2023-02-28T06:14:05;3.60;;;1.40;;
16524;SDS011;8375;33.594;-117.718;2023-02-28T06:16:34;4.93;;;1.80;;
16524;SDS011;8375;33.594;-117.718;2023-02-28T06:19:03;3.57;;;1.60;;
16524;SDS011;8375;33.594;-117.718;2023-02-28T06:21:33;6.10;;;1.80;;
16524;SDS011;8375;33.594;-117.718;2023-02-28T06:24:02;2.47;;;1.20;;
16524;SDS011;8375;33.594;-117.718;2023-02-28T06:26:31;3.73;;;1.70;;
16524;SDS011;8375;33.594;-117.718;2023-02-28T06:29:00;2.30;;;1.47;;
16524;SDS011;8375;33.594;-117.718;2023-02-28T06:31:29;2.60;;;1.30;;
16524;SDS011;8375;33.594;-117.718;2023-02-28T06:33:57;4.43;;;1.80;;
16524;SDS011;8375;33.594;-117.718;2023-02-28T06:36:26;4.77;;;1.57;;
16524;SDS011;8375;33.594;-117.718;2023-02-28T06:38:56;2.10;;;1.60;;
16524;SDS011;8375;33.594;-117.718;2023-02-28T06:41:26;3.63;;;1.43;;
16524;SDS011;8375;33.594;-117.718;2023-02-28T06:43:54;5.47;;;1.80;;
16524;SDS011;8375;33.594;-117.718;2023-02-28T06:46:24;4.27;;;1.50;;
16524;SDS011;8375;33.594;-117.718;2023-02-28T06:48:52;4.23;;;1.97;;
16524;SDS011;8375;33.594;-117.718;2023-02-28T06:51:21;3.30;;;1.63;;
16524;SDS011;8375;33.594;-117.718;2023-02-28T06:53:50;2.87;;;1.40;;
16524;SDS011;8375;33.594;-117.718;2023-02-28T06:56:21;12.00;;;2.23;;
16524;SDS011;8375;33.594;-117.718;2023-02-28T06:58:49;20.33;;;2.67;;
16524;SDS011;8375;33.594;-117.718;2023-02-28T07:01:19;56.20;;;5.10;;
16524;SDS011;8375;33.594;-117.718;2023-02-28T07:03:49;36.10;;;5.00;;
16524;SDS011;8375;33.594;-117.718;2023-02-28T07:06:19;36.30;;;4.30;;
16524;SDS011;8375;33.594;-117.718;2023-02-28T07:08:48;81.40;;;6.90;;
16524;SDS011;8375;33.594;-117.718;2023-02-28T07:11:17;26.80;;;4.83;;
16524;SDS011;8375;33.594;-117.718;2023-02-28T07:13:49;13.57;;;6.00;;
16524;SDS011;8375;33.594;-117.718;2023-02-28T07:16:18;11.83;;;4.77;;
16524;SDS011;8375;33.594;-117.718;2023-02-28T07:18:47;9.07;;;5.50;;
16524;SDS011;8375;33.594;-117.718;2023-02-28T07:21:16;7.27;;;5.00;;
16524;SDS011;8375;33.594;-117.718;2023-02-28T07:23:44;10.00;;;5.50;;
16524;SDS011;8375;33.594;-117.718;2023-02-28T07:26:14;8.00;;;5.70;;
16524;SDS011;8375;33.594;-117.718;2023-02-28T07:28:44;8.10;;;5.03;;
16524;SDS011;8375;33.594;-117.718;2023-02-28T07:31:15;12.73;;;6.97;;
16524;SDS011;8375;33.594;-117.718;2023-02-28T07:33:45;13.13;;;6.17;;
16524;SDS011;8375;33.594;-117.718;2023-02-28T07:36:14;6.43;;;5.57;;
16524;SDS011;8375;33.594;-117.718;2023-02-28T07:38:44;6.97;;;6.00;;
16524;SDS011;8375;33.594;-117.718;2023-02-28T07:41:15;8.10;;;5.87;;
16524;SDS011;8375;33.594;-117.718;2023-02-28T07:43:45;6.37;;;5.30;;
16524;SDS011;8375;33.594;-117.718;2023-02-28T07:46:16;9.37;;;5.97;;
16524;SDS011;8375;33.594;-117.718;2023-02-28T07:48:46;8.83;;;5.77;;
16524;SDS011;8375;33.594;-117.718;2023-02-28T07:51:15;8.00;;;6.20;;
16524;SDS011;8375;33.594;-117.718;2023-02-28T07:53:44;12.10;;;6.20;;
16524;SDS011;8375;33.594;-117.718;2023-02-28T07:56:12;7.50;;;5.27;;
16524;SDS011;8375;33.594;-117.718;2023-02-28T07:58:41;7.47;;;5.87;;
16524;SDS011;8375;33.594;-117.718;2023-02-28T08:01:10;8.73;;;5.67;;
16524;SDS011;8375;33.594;-117.718;2023-02-28T08:03:41;6.70;;;5.57;;
16524;SDS011;8375;33.594;-117.718;2023-02-28T08:06:14;12.40;;;6.00;;
16524;SDS011;8375;33.594;-117.718;2023-02-28T08:08:44;7.13;;;4.90;;
16524;SDS011;8375;33.594;-117.718;2023-02-28T08:11:13;6.37;;;5.67;;
16524;SDS011;8375;33.594;-117.718;2023-02-28T08:13:42;5.00;;;4.50;;
16524;SDS011;8375;33.594;-117.718;2023-02-28T08:16:12;6.63;;;4.47;;
16524;SDS011;8375;33.594;-117.718;2023-02-28T08:18:49;7.10;;;5.30;;
16524;SDS011;8375;33.594;-117.718;2023-02-28T08:21:18;5.70;;;4.90;;
16524;SDS011;8375;33.594;-117.718;2023-02-28T08:23:47;6.03;;;5.20;;
16524;SDS011;8375;33.594;-117.718;2023-02-28T08:26:16;5.90;;;5.30;;
16524;SDS011;8375;33.594;-117.718;2023-02-28T08:28:45;6.07;;;4.77;;
16524;SDS011;8375;33.594;-117.718;2023-02-28T08:31:14;8.47;;;5.27;;
16524;SDS011;8375;33.594;-117.718;2023-02-28T08:33:44;6.20;;;5.00;;
16524;SDS011;8375;33.594;-117.718;2023-02-28T08:36:15;5.57;;;4.70;;
16524;SDS011;8375;33.594;-117.718;2023-02-28T08:38:44;7.10;;;4.87;;
16524;SDS011;8375;33.594;-117.718;2023-02-28T08:41:13;6.77;;;5.00;;
16524;SDS011;8375;33.594;-117.718;2023-02-28T08:43:41;5.87;;;4.33;;
16524;SDS011;8375;33.594;-117.718;2023-02-28T08:46:11;7.00;;;4.33;;
16524;SDS011;8375;33.594;-117.718;2023-02-28T08:48:40;7.67;;;4.47;;
16524;SDS011;8375;33.594;-117.718;2023-02-28T08:51:10;5.63;;;4.93;;
16524;SDS011;8375;33.594;-117.718;2023-02-28T08:53:43;7.63;;;5.20;;
16524;SDS011;8375;33.594;-117.718;2023-02-28T08:56:15;8.70;;;5.33;;
16524;SDS011;8375;33.594;-117.718;2023-02-28T08:58:44;7.40;;;5.83;;
16524;SDS011;8375;33.594;-117.718;2023-02-28T09:01:14;7.73;;;6.13;;
16524;SDS011;8375;33.594;-117.718;2023-02-28T09:03:44;9.97;;;5.90;;
16524;SDS011;8375;33.594;-117.718;2023-02-28T09:06:13;8.33;;;4.90;;
16524;SDS011;8375;33.594;-117.718;2023-02-28T09:08:44;8.87;;;5.37;;
16524;SDS011;8375;33.594;-117.718;2023-02-28T09:11:13;6.13;;;5.37;;
16524;SDS011;8375;33.594;-117.718;2023-02-28T09:13:41;7.07;;;6.03;;
16524;SDS011;8375;33.594;-117.718;2023-02-28T09:16:11;7.03;;;6.23;;
16524;SDS011;8375;33.594;-117.718;2023-02-28T09:18:41;7.87;;;7.13;;
16524;SDS011;8375;33.594;-117.718;2023-02-28T09:21:13;12.30;;;7.53;;
16524;SDS011;8375;33.594;-117.718;2023-02-28T09:23:45;8.83;;;6.90;;
16524;SDS011;8375;33.594;-117.718;2023-02-28T09:26:16;10.87;;;7.10;;
16524;SDS011;8375;33.594;-117.718;2023-02-28T09:28:45;14.10;;;7.73;;
16524;SDS011;8375;33.594;-117.718;2023-02-28T09:31:15;8.83;;;7.07;;
16524;SDS011;8375;33.594;-117.718;2023-02-28T09:33:46;12.07;;;6.70;;
16524;SDS011;8375;33.594;-117.718;2023-02-28T09:36:15;8.80;;;6.20;;
16524;SDS011;8375;33.594;-117.718;2023-02-28T09:38:46;7.83;;;5.17;;
16524;SDS011;8375;33.594;-117.718;2023-02-28T09:41:17;8.80;;;5.97;;
16524;SDS011;8375;33.594;-117.718;2023-02-28T09:43:50;7.33;;;6.17;;
16524;SDS011;8375;33.594;-117.718;2023-02-28T09:46:27;13.50;;;7.17;;
16524;SDS011;8375;33.594;-117.718;2023-02-28T09:49:00;8.17;;;6.53;;
16524;SDS011;8375;33.594;-117.718;2023-02-28T09:51:41;9.10;;;6.10;;
16524;SDS011;8375;33.594;-117.718;2023-02-28T09:54:19;10.33;;;7.20;;
16524;SDS011;8375;33.594;-117.718;2023-02-28T09:56:49;6.40;;;5.57;;
16524;SDS011;8375;33.594;-117.718;2023-02-28T09:59:25;8.60;;;6.60;;
16524;SDS011;8375;33.594;-117.718;2023-02-28T10:02:12;9.43;;;7.20;;
16524;SDS011;8375;33.594;-117.718;2023-02-28T10:04:49;7.40;;;6.50;;
16524;SDS011;8375;33.594;-117.718;2023-02-28T10:07:23;6.73;;;6.03;;
16524;SDS011;8375;33.594;-117.718;2023-02-28T10:10:14;10.20;;;6.00;;
16524;SDS011;8375;33.594;-117.718;2023-02-28T10:12:50;8.17;;;6.43;;
16524;SDS011;8375;33.594;-117.718;2023-02-28T10:15:23;9.67;;;6.10;;
16524;SDS011;8375;33.594;-117.718;2023-02-28T10:17:56;8.27;;;6.47;;
16524;SDS011;8375;33.594;-117.718;2023-02-28T10:20:28;6.67;;;5.97;;
16524;SDS011;8375;33.594;-117.718;2023-02-28T10:23:04;8.50;;;6.40;;
16524;SDS011;8375;33.594;-117.718;2023-02-28T10:25:40;10.57;;;6.90;;
16524;SDS011;8375;33.594;-117.718;2023-02-28T10:28:14;9.47;;;7.37;;
16524;SDS011;8375;33.594;-117.718;2023-02-28T10:30:44;10.93;;;7.03;;
16524;SDS011;8375;33.594;-117.718;2023-02-28T10:33:20;12.53;;;7.83;;
16524;SDS011;8375;33.594;-117.718;2023-02-28T10:35:51;8.03;;;6.60;;
16524;SDS011;8375;33.594;-117.718;2023-02-28T10:38:21;9.10;;;6.37;;
16524;SDS011;8375;33.594;-117.718;2023-02-28T10:40:53;8.67;;;6.93;;
16524;SDS011;8375;33.594;-117.718;2023-02-28T10:43:32;9.57;;;6.00;;
16524;SDS011;8375;33.594;-117.718;2023-02-28T10:46:02;6.70;;;5.10;;
16524;SDS011;8375;33.594;-117.718;2023-02-28T10:48:36;6.63;;;4.17;;
16524;SDS011;8375;33.594;-117.718;2023-02-28T10:51:07;6.00;;;4.10;;
16524;SDS011;8375;33.594;-117.718;2023-02-28T10:53:38;5.27;;;3.97;;
16524;SDS011;8375;33.594;-117.718;2023-02-28T10:56:19;6.57;;;4.20;;
16524;SDS011;8375;33.594;-117.718;2023-02-28T10:58:50;5.43;;;4.23;;
16524;SDS011;8375;33.594;-117.718;2023-02-28T11:01:22;6.70;;;4.80;;
16524;SDS011;8375;33.594;-117.718;2023-02-28T11:03:52;5.73;;;5.00;;
16524;SDS011;8375;33.594;-117.718;2023-02-28T11:06:21;4.70;;;3.73;;
16524;SDS011;8375;33.594;-117.718;2023-02-28T11:08:52;8.97;;;4.57;;
16524;SDS011;8375;33.594;-117.718;2023-02-28T11:11:24;6.87;;;4.17;;
16524;SDS011;8375;33.594;-117.718;2023-02-28T11:13:57;4.50;;;3.87;;
16524;SDS011;8375;33.594;-117.718;2023-02-28T11:16:33;5.87;;;4.27;;
16524;SDS011;8375;33.594;-117.718;2023-02-28T11:19:04;5.10;;;3.70;;
16524;SDS011;8375;33.594;-117.718;2023-02-28T11:21:46;4.70;;;3.53;;
16524;SDS011;8375;33.594;-117.718;2023-02-28T11:24:21;5.13;;;3.10;;
16524;SDS011;8375;33.594;-117.718;2023-02-28T11:26:55;7.27;;;4.07;;
16524;SDS011;8375;33.594;-117.718;2023-02-28T11:29:25;4.60;;;3.50;;
16524;SDS011;8375;33.594;-117.718;2023-02-28T11:32:01;5.67;;;3.40;;
16524;SDS011;8375;33.594;-117.718;2023-02-28T11:34:33;3.53;;;3.00;;
16524;SDS011;8375;33.594;-117.718;2023-02-28T11:37:03;4.03;;;3.07;;
16524;SDS011;8375;33.594;-117.718;2023-02-28T11:39:37;4.33;;;3.23;;
16524;SDS011;8375;33.594;-117.718;2023-02-28T11:42:11;3.67;;;2.40;;
16524;SDS011;8375;33.594;-117.718;2023-02-28T11:45:04;4.37;;;2.97;;
16524;SDS011;8375;33.594;-117.718;2023-02-28T11:47:54;4.97;;;3.00;;
16524;SDS011;8375;33.594;-117.718;2023-02-28T11:50:41;4.13;;;2.87;;
16524;SDS011;8375;33.594;-117.718;2023-02-28T11:53:20;5.83;;;2.73;;
16524;SDS011;8375;33.594;-117.718;2023-02-28T11:55:54;3.63;;;2.57;;
16524;SDS011;8375;33.594;-117.718;2023-02-28T11:58:36;6.53;;;3.10;;
16524;SDS011;8375;33.594;-117.718;2023-02-28T12:01:14;5.80;;;2.80;;
16524;SDS011;8375;33.594;-117.718;2023-02-28T12:04:14;4.73;;;3.30;;
16524;SDS011;8375;33.594;-117.718;2023-02-28T12:06:53;5.03;;;4.33;;
16524;SDS011;8375;33.594;-117.718;2023-02-28T12:09:40;4.10;;;3.37;;
16524;SDS011;8375;33.594;-117.718;2023-02-28T12:12:21;6.27;;;5.00;;
16524;SDS011;8375;33.594;-117.718;2023-02-28T12:18:04;5.90;;;5.03;;
16524;SDS011;8375;33.594;-117.718;2023-02-28T12:20:49;7.43;;;6.13;;
16524;SDS011;8375;33.594;-117.718;2023-02-28T12:23:44;7.40;;;5.50;;
16524;SDS011;8375;33.594;-117.718;2023-02-28T12:26:21;7.73;;;5.47;;
16524;SDS011;8375;33.594;-117.718;2023-02-28T12:28:57;8.97;;;5.70;;
16524;SDS011;8375;33.594;-117.718;2023-02-28T12:31:33;6.30;;;5.43;;
16524;SDS011;8375;33.594;-117.718;2023-02-28T12:34:09;5.70;;;5.13;;
16524;SDS011;8375;33.594;-117.718;2023-02-28T12:36:40;7.43;;;5.37;;
16524;SDS011;8375;33.594;-117.718;2023-02-28T12:39:11;8.20;;;4.97;;
16524;SDS011;8375;33.594;-117.718;2023-02-28T12:41:45;6.50;;;5.03;;
16524;SDS011;8375;33.594;-117.718;2023-02-28T12:44:17;10.07;;;5.90;;
16524;SDS011;8375;33.594;-117.718;2023-02-28T12:46:54;8.13;;;5.10;;
16524;SDS011;8375;33.594;-117.718;2023-02-28T12:49:27;6.97;;;5.40;;
16524;SDS011;8375;33.594;-117.718;2023-02-28T12:51:59;5.83;;;5.03;;
16524;SDS011;8375;33.594;-117.718;2023-02-28T12:54:30;6.20;;;4.43;;
16524;SDS011;8375;33.594;-117.718;2023-02-28T12:57:06;8.73;;;5.00;;
16524;SDS011;8375;33.594;-117.718;2023-02-28T12:59:41;5.13;;;4.57;;
16524;SDS011;8375;33.594;-117.718;2023-02-28T13:02:26;8.10;;;4.80;;
16524;SDS011;8375;33.594;-117.718;2023-02-28T13:11:28;6.70;;;3.47;;
16524;SDS011;8375;33.594;-117.718;2023-02-28T13:13:59;7.93;;;4.00;;
16524;SDS011;8375;33.594;-117.718;2023-02-28T13:19:26;6.33;;;3.33;;
16524;SDS011;8375;33.594;-117.718;2023-02-28T13:21:57;5.33;;;3.50;;
16524;SDS011;8375;33.594;-117.718;2023-02-28T13:24:36;10.50;;;3.90;;
16524;SDS011;8375;33.594;-117.718;2023-02-28T13:27:22;13.77;;;4.73;;
16524;SDS011;8375;33.594;-117.718;2023-02-28T13:33:21;6.83;;;3.57;;
16524;SDS011;8375;33.594;-117.718;2023-02-28T13:38:55;3.97;;;2.53;;
16524;SDS011;8375;33.594;-117.718;2023-02-28T13:41:46;3.07;;;2.57;;
16524;SDS011;8375;33.594;-117.718;2023-02-28T13:44:16;5.13;;;3.00;;
16524;SDS011;8375;33.594;-117.718;2023-02-28T13:49:50;4.17;;;2.80;;
16524;SDS011;8375;33.594;-117.718;2023-02-28T13:52:24;5.07;;;3.20;;
16524;SDS011;8375;33.594;-117.718;2023-02-28T13:54:58;5.23;;;2.77;;
16524;SDS011;8375;33.594;-117.718;2023-02-28T13:57:46;7.40;;;3.43;;
16524;SDS011;8375;33.594;-117.718;2023-02-28T14:00:39;7.30;;;3.20;;
16524;SDS011;8375;33.594;-117.718;2023-02-28T14:03:31;7.00;;;2.83;;
16524;SDS011;8375;33.594;-117.718;2023-02-28T14:06:22;6.63;;;3.07;;
16524;SDS011;8375;33.594;-117.718;2023-02-28T14:08:58;5.47;;;3.00;;
16524;SDS011;8375;33.594;-117.718;2023-02-28T14:11:31;5.10;;;3.23;;
16524;SDS011;8375;33.594;-117.718;2023-02-28T14:14:01;5.83;;;2.87;;
16524;SDS011;8375;33.594;-117.718;2023-02-28T14:16:39;7.83;;;3.83;;
16524;SDS011;8375;33.594;-117.718;2023-02-28T14:19:11;7.07;;;3.60;;
16524;SDS011;8375;33.594;-117.718;2023-02-28T14:21:48;6.50;;;3.33;;
16524;SDS011;8375;33.594;-117.718;2023-02-28T14:24:38;5.03;;;3.30;;
16524;SDS011;8375;33.594;-117.718;2023-02-28T14:27:33;6.20;;;3.30;;
16524;SDS011;8375;33.594;-117.718;2023-02-28T14:30:15;4.83;;;3.50;;
16524;SDS011;8375;33.594;-117.718;2023-02-28T14:33:10;5.67;;;3.20;;
16524;SDS011;8375;33.594;-117.718;2023-02-28T14:35:52;7.37;;;4.00;;
16524;SDS011;8375;33.594;-117.718;2023-02-28T14:38:41;5.40;;;3.50;;
16524;SDS011;8375;33.594;-117.718;2023-02-28T14:41:20;4.00;;;3.20;;
16524;SDS011;8375;33.594;-117.718;2023-02-28T14:43:57;4.13;;;3.17;;
16524;SDS011;8375;33.594;-117.718;2023-02-28T14:46:27;4.40;;;3.50;;
16524;SDS011;8375;33.594;-117.718;2023-02-28T14:49:03;8.73;;;4.27;;
16524;SDS011;8375;33.594;-117.718;2023-02-28T14:51:33;5.97;;;3.90;;
16524;SDS011;8375;33.594;-117.718;2023-02-28T14:54:02;7.60;;;3.50;;
16524;SDS011;8375;33.594;-117.718;2023-02-28T14:56:35;6.40;;;3.87;;
16524;SDS011;8375;33.594;-117.718;2023-02-28T14:59:05;5.97;;;3.60;;
16524;SDS011;8375;33.594;-117.718;2023-02-28T15:02:16;9.57;;;4.10;;
16524;SDS011;8375;33.594;-117.718;2023-02-28T15:04:54;8.30;;;3.90;;
16524;SDS011;8375;33.594;-117.718;2023-02-28T15:07:24;7.27;;;3.93;;
16524;SDS011;8375;33.594;-117.718;2023-02-28T15:10:07;10.67;;;4.27;;
16524;SDS011;8375;33.594;-117.718;2023-02-28T15:12:39;8.67;;;4.53;;
16524;SDS011;8375;33.594;-117.718;2023-02-28T15:15:14;7.73;;;4.47;;
16524;SDS011;8375;33.594;-117.718;2023-02-28T15:17:44;7.23;;;4.50;;
16524;SDS011;8375;33.594;-117.718;2023-02-28T15:20:17;12.43;;;4.80;;
16524;SDS011;8375;33.594;-117.718;2023-02-28T15:22:47;9.17;;;5.57;;
16524;SDS011;8375;33.594;-117.718;2023-02-28T15:25:20;8.03;;;4.93;;
16524;SDS011;8375;33.594;-117.718;2023-02-28T15:27:53;5.83;;;4.63;;
16524;SDS011;8375;33.594;-117.718;2023-02-28T15:30:24;8.53;;;4.27;;
16524;SDS011;8375;33.594;-117.718;2023-02-28T15:33:02;6.47;;;4.80;;
16524;SDS011;8375;33.594;-117.718;2023-02-28T15:35:34;7.13;;;4.13;;
16524;SDS011;8375;33.594;-117.718;2023-02-28T15:38:03;8.90;;;4.13;;
16524;SDS011;8375;33.594;-117.718;2023-02-28T15:40:42;7.37;;;3.90;;
16524;SDS011;8375;33.594;-117.718;2023-02-28T15:43:22;6.20;;;3.67;;
16524;SDS011;8375;33.594;-117.718;2023-02-28T15:45:54;5.17;;;3.57;;
16524;SDS011;8375;33.594;-117.718;2023-02-28T15:48:25;6.47;;;3.30;;
16524;SDS011;8375;33.594;-117.718;2023-02-28T15:50:56;4.87;;;3.13;;
16524;SDS011;8375;33.594;-117.718;2023-02-28T15:53:34;3.55;;;1.85;;
16524;SDS011;8375;33.594;-117.718;2023-02-28T15:56:05;5.15;;;3.22;;
16524;SDS011;8375;33.594;-117.718;2023-02-28T15:58:45;4.95;;;3.58;;
16524;SDS011;8375;33.594;-117.718;2023-02-28T16:01:18;5.30;;;3.00;;
16524;SDS011;8375;33.594;-117.718;2023-02-28T16:03:51;5.07;;;2.92;;
16524;SDS011;8375;33.594;-117.718;2023-02-28T16:06:28;5.35;;;2.40;;
16524;SDS011;8375;33.594;-117.718;2023-02-28T16:09:09;3.42;;;2.20;;
16524;SDS011;8375;33.594;-117.718;2023-02-28T16:11:40;6.13;;;2.28;;
16524;SDS011;8375;33.594;-117.718;2023-02-28T16:14:16;7.13;;;2.05;;
16524;SDS011;8375;33.594;-117.718;2023-02-28T16:16:48;4.30;;;1.90;;
16524;SDS011;8375;33.594;-117.718;2023-02-28T16:19:18;4.90;;;2.33;;
16524;SDS011;8375;33.594;-117.718;2023-02-28T16:21:47;4.53;;;2.20;;
16524;SDS011;8375;33.594;-117.718;2023-02-28T16:24:16;3.20;;;1.73;;
16524;SDS011;8375;33.594;-117.718;2023-02-28T16:26:46;2.85;;;1.80;;
16524;SDS011;8375;33.594;-117.718;2023-02-28T16:29:19;3.75;;;1.80;;
16524;SDS011;8375;33.594;-117.718;2023-02-28T16:31:53;4.05;;;2.00;;
16524;SDS011;8375;33.594;-117.718;2023-02-28T16:34:22;4.22;;;2.03;;
16524;SDS011;8375;33.594;-117.718;2023-02-28T16:36:50;5.65;;;2.03;;